This is the latest recevied weather packets stored in our database for station/object OE-1066. If no packets are shown the sender has not sent any weather packets the latest 10 day(s).
| Time | Temp. | Humidity | Pressure | Rain* | Wind** | Luminosity | Snow |
|---|---|---|---|---|---|---|---|
| 1788163870 | 20.56° C | 77% | 1016.5 hPa | - | - | - | - |
| 1788162070 | 19.44° C | 81% | 1016.6 hPa | - | - | - | - |
| 1788160270 | 18.89° C | 83% | 1016.8 hPa | - | - | - | - |
| 1788158470 | 18.33° C | 85% | 1016.8 hPa | - | - | - | - |
| 1788156669 | 18.33° C | 85% | 1016.8 hPa | - | - | - | - |
| 1788154870 | 18.33° C | 83% | 1016.8 hPa | - | - | - | - |
| 1788153070 | 18.89° C | 82% | 1016.8 hPa | - | - | - | - |
| 1788151269 | 20° C | 74% | 1014.4 hPa | - | - | - | - |
| 1788149708 | 19.44° C | 76% | 1013.5 hPa | - | - | - | - |
| 1788145869 | 18.89° C | 82% | 1013.6 hPa | - | - | - | - |
| 1788142269 | 19.44° C | 80% | 1013.5 hPa | - | - | - | - |
| 1788120670 | 23.89° C | 57% | 1013.8 hPa | - | - | - | - |
| 1788117070 | 24.44° C | 53% | 1013.7 hPa | - | - | - | - |
| 1788113470 | 26.11° C | 48% | 1012.4 hPa | - | - | - | - |
| 1788109870 | 26.67° C | 44% | 1012.3 hPa | - | - | - | - |
| 1788108070 | 27.78° C | 42% | 1012.2 hPa | - | - | - | - |
| 1788102670 | 28.33° C | 40% | 1012 hPa | - | - | - | - |
| 1788100870 | 28.33° C | 41% | 1012 hPa | - | - | - | - |
| 1788099070 | 28.33° C | 42% | 1012 hPa | - | - | - | - |
| 1788097270 | 28.33° C | 41% | 1013.1 hPa | - | - | - | - |
| 1788095470 | 27.78° C | 42% | 1013.2 hPa | - | - | - | - |
| 1788091870 | 27.22° C | 43% | 1014.3 hPa | - | - | - | - |
| 1788090070 | 26.67° C | 43% | 1014.4 hPa | - | - | - | - |
| 1788088270 | 26.67° C | 44% | 1014.5 hPa | - | - | - | - |
| 1788086470 | 26.11° C | 44% | 1014.5 hPa | - | - | - | - |
* Rain since midnight (hover to see other rain measurements)
** Current wind speed in m/s (hover to see current wind gust speed)